Melbourne, FL (32904)

9:37 PM EDT on April 20, 2015 (GMT -0400)
Brandywine Estates | | Change Station
CLOSE
Current Station
Personal Weather Station
Location: Melbourne, FL
Elevation: 26 ft
Nearby Weather Stations

Elev 26 ft 28.06 °N, 80.71 °W | Updated 38 seconds ago

Partly Cloudy
Partly Cloudy
67.6 °F
Feels Like 67.6 °F
N
0.0
Wind Variable Wind from SSE
Gusts 0.0 mph

Today
High -- | Low -- °F
--% Chance of Precip.
Yesterday
High -- | Low -- °F
Precip. -- in
6:52 AM 7:50 PM
Waxing Crescent, 7% visible
Pressure 29.94 in
Visibility 10.0 miles
Clouds Few 6500 ft
Dew Point 67 °F
Humidity 96%
Rainfall in
Snow Depth Not available.
UV 0.0 out of 12
Pollen 7.30 out of 12
Air Quality Not available.
Flu Activity Local Activity
METAR KMLB 210053Z 03007KT 10SM FEW065 20/18 A2994 RMK AO2 RAE17 SLP139 P0001 T02000178

More Conditions Fewer Conditions

Pressure 29.94 in
Visibility 10.0 miles
Clouds Few 6500 ft
Dew Point 67 °F
Humidity 96%
Rainfall in
Snow Depth Not available.
UV 0.0 out of 12
Pollen 7.30 out of 12
Air Quality Not available.
Flu Activity Local Activity
METAR KMLB 210053Z 03007KT 10SM FEW065 20/18 A2994 RMK AO2 RAE17 SLP139 P0001 T02000178

More Conditions Fewer Conditions

Nowcast | as of 7:08 PM EDT on April 20, 2015

Through mid evening...a few strong storms are expected south of Interstate 4 where scattered showers and storms will race off to the northeast at 35 to 40 mph. Gusty winds...small hail...torrential downpours...and frequent lightning will also accompany stronger cells. Storms will push offshore and pose a significant marine hazard through this evening...mainly from the cape southward. Light rain showers will occur north of Interstate 4 this evening. Additional details...including graphics are available online at: http://www.Srh.NOAA.Gov/mlb/blog.Php

×

10-Day Weather Forecast

Almanac

Astronomy

Apr. 20, 2015 Rise Set
Actual Time
Civil Twilight
Nautical Twilight
Astronomical Twilight
Moon
Length of Visible Light
Length of Day
Tomorrow will be .
, % of the Moon is Illuminated

Today's Extremes

State Highs State Lows

Community

WunderPhotos

Upload Photos

1,815,276 photos uploaded!

WunderBlogs® & News

Nearby

Air Quality

  Air Quality AQ Index Pollutant
Not available.

Snow Depth

Station Depth Elevation

Earthquake Activity

City Distance Mag. Time & Date
Minimum magnitude displayed is 2.5.

Coastal Water Temperatures

Place Temperature

Stations

Nearby Weather Stations

Station Location Temp. Windchill Dew Point Humidity Wind Precip. Elev Updated Type